sensor_id;sensor_type;location;lat;lon;timestamp;temperature;humidity
36552;DHT22;22559;54.176;12.102;2024-03-06T00:02:24;4.00;99.90
36552;DHT22;22559;54.176;12.102;2024-03-06T00:04:50;4.00;99.90
36552;DHT22;22559;54.176;12.102;2024-03-06T00:07:15;4.10;99.90
36552;DHT22;22559;54.176;12.102;2024-03-06T00:09:41;4.00;99.90
36552;DHT22;22559;54.176;12.102;2024-03-06T00:12:07;4.10;99.90
36552;DHT22;22559;54.176;12.102;2024-03-06T00:14:33;4.10;99.90
36552;DHT22;22559;54.176;12.102;2024-03-06T00:16:58;4.10;99.90
36552;DHT22;22559;54.176;12.102;2024-03-06T00:19:24;4.10;99.90
36552;DHT22;22559;54.176;12.102;2024-03-06T00:21:50;4.10;99.90
36552;DHT22;22559;54.176;12.102;2024-03-06T00:24:16;4.10;99.90
36552;DHT22;22559;54.176;12.102;2024-03-06T00:26:42;4.10;99.90
36552;DHT22;22559;54.176;12.102;2024-03-06T00:29:09;4.10;99.90
36552;DHT22;22559;54.176;12.102;2024-03-06T00:31:35;4.10;99.90
36552;DHT22;22559;54.176;12.102;2024-03-06T00:34:00;4.10;99.90
36552;DHT22;22559;54.176;12.102;2024-03-06T00:36:26;4.10;99.90
36552;DHT22;22559;54.176;12.102;2024-03-06T00:38:52;4.10;99.90
36552;DHT22;22559;54.176;12.102;2024-03-06T00:41:17;4.10;99.90
36552;DHT22;22559;54.176;12.102;2024-03-06T00:43:43;4.10;99.90
36552;DHT22;22559;54.176;12.102;2024-03-06T00:46:09;4.10;99.90
36552;DHT22;22559;54.176;12.102;2024-03-06T00:48:34;4.10;99.90
36552;DHT22;22559;54.176;12.102;2024-03-06T00:51:00;4.10;99.90
36552;DHT22;22559;54.176;12.102;2024-03-06T00:53:26;4.10;99.90
36552;DHT22;22559;54.176;12.102;2024-03-06T00:55:51;4.10;99.90
36552;DHT22;22559;54.176;12.102;2024-03-06T00:58:17;4.10;99.90
36552;DHT22;22559;54.176;12.102;2024-03-06T01:00:42;4.10;99.90
36552;DHT22;22559;54.176;12.102;2024-03-06T01:03:08;4.10;99.90
36552;DHT22;22559;54.176;12.102;2024-03-06T01:05:34;4.10;99.90
36552;DHT22;22559;54.176;12.102;2024-03-06T01:07:59;4.10;99.90
36552;DHT22;22559;54.176;12.102;2024-03-06T01:10:25;4.10;99.90
36552;DHT22;22559;54.176;12.102;2024-03-06T01:12:51;4.00;99.90
36552;DHT22;22559;54.176;12.102;2024-03-06T01:15:16;4.00;99.90
36552;DHT22;22559;54.176;12.102;2024-03-06T01:17:42;4.00;99.90
36552;DHT22;22559;54.176;12.102;2024-03-06T01:20:08;4.00;99.90
36552;DHT22;22559;54.176;12.102;2024-03-06T01:22:34;4.00;99.90
36552;DHT22;22559;54.176;12.102;2024-03-06T01:25:00;4.10;99.90
36552;DHT22;22559;54.176;12.102;2024-03-06T01:27:29;4.00;99.90
36552;DHT22;22559;54.176;12.102;2024-03-06T01:29:55;4.10;99.90
36552;DHT22;22559;54.176;12.102;2024-03-06T01:32:20;4.00;99.90
36552;DHT22;22559;54.176;12.102;2024-03-06T01:34:46;4.00;99.90
36552;DHT22;22559;54.176;12.102;2024-03-06T01:37:11;4.00;99.90
36552;DHT22;22559;54.176;12.102;2024-03-06T01:39:37;4.10;99.90
36552;DHT22;22559;54.176;12.102;2024-03-06T01:42:03;4.10;99.90
36552;DHT22;22559;54.176;12.102;2024-03-06T01:44:29;4.10;99.90
36552;DHT22;22559;54.176;12.102;2024-03-06T01:46:54;4.10;99.90
36552;DHT22;22559;54.176;12.102;2024-03-06T01:49:21;4.10;99.90
36552;DHT22;22559;54.176;12.102;2024-03-06T01:51:54;4.10;99.90
36552;DHT22;22559;54.176;12.102;2024-03-06T01:54:21;4.10;99.90
36552;DHT22;22559;54.176;12.102;2024-03-06T01:56:49;4.20;99.90
36552;DHT22;22559;54.176;12.102;2024-03-06T01:59:16;4.30;99.90
36552;DHT22;22559;54.176;12.102;2024-03-06T02:01:43;4.30;99.90
36552;DHT22;22559;54.176;12.102;2024-03-06T02:04:09;4.20;99.90
36552;DHT22;22559;54.176;12.102;2024-03-06T02:06:41;4.20;99.90
36552;DHT22;22559;54.176;12.102;2024-03-06T02:09:07;4.40;99.90
36552;DHT22;22559;54.176;12.102;2024-03-06T02:11:34;4.40;99.90
36552;DHT22;22559;54.176;12.102;2024-03-06T02:14:00;4.40;99.90
36552;DHT22;22559;54.176;12.102;2024-03-06T02:16:26;4.40;99.90
36552;DHT22;22559;54.176;12.102;2024-03-06T02:18:53;4.40;99.90
36552;DHT22;22559;54.176;12.102;2024-03-06T02:21:23;4.40;99.90
36552;DHT22;22559;54.176;12.102;2024-03-06T02:23:49;4.40;99.90
36552;DHT22;22559;54.176;12.102;2024-03-06T02:26:17;4.40;99.90
36552;DHT22;22559;54.176;12.102;2024-03-06T02:28:50;4.40;99.90
36552;DHT22;22559;54.176;12.102;2024-03-06T02:31:16;4.40;99.90
36552;DHT22;22559;54.176;12.102;2024-03-06T02:33:43;4.50;99.90
36552;DHT22;22559;54.176;12.102;2024-03-06T02:36:10;4.50;99.90
36552;DHT22;22559;54.176;12.102;2024-03-06T02:38:36;4.40;99.90
36552;DHT22;22559;54.176;12.102;2024-03-06T02:41:02;4.40;99.90
36552;DHT22;22559;54.176;12.102;2024-03-06T02:43:28;4.50;99.90
36552;DHT22;22559;54.176;12.102;2024-03-06T02:45:53;4.50;99.90
36552;DHT22;22559;54.176;12.102;2024-03-06T02:48:19;4.50;99.90
36552;DHT22;22559;54.176;12.102;2024-03-06T02:50:44;4.50;99.90
36552;DHT22;22559;54.176;12.102;2024-03-06T02:53:10;4.50;99.90
36552;DHT22;22559;54.176;12.102;2024-03-06T02:55:36;4.50;99.90
36552;DHT22;22559;54.176;12.102;2024-03-06T02:58:04;4.50;99.90
36552;DHT22;22559;54.176;12.102;2024-03-06T03:00:30;4.60;99.90
36552;DHT22;22559;54.176;12.102;2024-03-06T03:02:57;4.60;99.90
36552;DHT22;22559;54.176;12.102;2024-03-06T03:05:23;4.60;99.90
36552;DHT22;22559;54.176;12.102;2024-03-06T03:07:49;4.60;99.90
36552;DHT22;22559;54.176;12.102;2024-03-06T03:10:15;4.50;99.90
36552;DHT22;22559;54.176;12.102;2024-03-06T03:12:41;4.50;99.90
36552;DHT22;22559;54.176;12.102;2024-03-06T03:15:07;4.50;99.90
36552;DHT22;22559;54.176;12.102;2024-03-06T03:17:33;4.50;99.90
36552;DHT22;22559;54.176;12.102;2024-03-06T03:19:59;4.60;99.90
36552;DHT22;22559;54.176;12.102;2024-03-06T03:22:25;4.60;99.90
36552;DHT22;22559;54.176;12.102;2024-03-06T03:24:51;4.60;99.90
36552;DHT22;22559;54.176;12.102;2024-03-06T03:27:16;4.60;99.90
36552;DHT22;22559;54.176;12.102;2024-03-06T03:29:42;4.60;99.90
36552;DHT22;22559;54.176;12.102;2024-03-06T03:32:08;4.60;99.90
36552;DHT22;22559;54.176;12.102;2024-03-06T03:34:36;4.60;99.90
36552;DHT22;22559;54.176;12.102;2024-03-06T03:37:02;4.50;99.90
36552;DHT22;22559;54.176;12.102;2024-03-06T03:39:27;4.50;99.90
36552;DHT22;22559;54.176;12.102;2024-03-06T03:41:53;4.60;99.90
36552;DHT22;22559;54.176;12.102;2024-03-06T03:44:20;4.50;99.90
36552;DHT22;22559;54.176;12.102;2024-03-06T03:46:45;4.50;99.90
36552;DHT22;22559;54.176;12.102;2024-03-06T03:49:11;4.60;99.90
36552;DHT22;22559;54.176;12.102;2024-03-06T03:51:38;4.50;99.90
36552;DHT22;22559;54.176;12.102;2024-03-06T03:54:04;4.50;99.90
36552;DHT22;22559;54.176;12.102;2024-03-06T03:56:30;4.50;99.90
36552;DHT22;22559;54.176;12.102;2024-03-06T03:58:59;4.50;99.90
36552;DHT22;22559;54.176;12.102;2024-03-06T04:01:25;4.50;99.90
36552;DHT22;22559;54.176;12.102;2024-03-06T04:03:51;4.50;99.90
36552;DHT22;22559;54.176;12.102;2024-03-06T04:06:17;4.50;99.90
36552;DHT22;22559;54.176;12.102;2024-03-06T04:08:43;4.60;99.90
36552;DHT22;22559;54.176;12.102;2024-03-06T04:11:08;4.50;99.90
36552;DHT22;22559;54.176;12.102;2024-03-06T04:13:37;4.40;99.90
36552;DHT22;22559;54.176;12.102;2024-03-06T04:16:04;4.40;99.90
36552;DHT22;22559;54.176;12.102;2024-03-06T04:18:31;4.40;99.90
36552;DHT22;22559;54.176;12.102;2024-03-06T04:21:04;4.50;99.90
36552;DHT22;22559;54.176;12.102;2024-03-06T04:23:30;4.50;99.90
36552;DHT22;22559;54.176;12.102;2024-03-06T04:25:56;4.50;99.90
36552;DHT22;22559;54.176;12.102;2024-03-06T04:28:21;4.60;99.90
36552;DHT22;22559;54.176;12.102;2024-03-06T04:30:47;4.60;99.90
36552;DHT22;22559;54.176;12.102;2024-03-06T04:33:13;4.60;99.90
36552;DHT22;22559;54.176;12.102;2024-03-06T04:35:40;4.60;99.90
36552;DHT22;22559;54.176;12.102;2024-03-06T04:38:07;4.60;99.90
36552;DHT22;22559;54.176;12.102;2024-03-06T04:40:33;4.60;99.90
36552;DHT22;22559;54.176;12.102;2024-03-06T04:43:00;4.70;99.90
36552;DHT22;22559;54.176;12.102;2024-03-06T04:45:25;4.70;99.90
36552;DHT22;22559;54.176;12.102;2024-03-06T04:47:51;4.70;99.90
36552;DHT22;22559;54.176;12.102;2024-03-06T04:50:17;4.70;99.90
36552;DHT22;22559;54.176;12.102;2024-03-06T04:52:43;4.70;99.90
36552;DHT22;22559;54.176;12.102;2024-03-06T04:55:10;4.70;99.90
36552;DHT22;22559;54.176;12.102;2024-03-06T04:57:37;4.70;99.90
36552;DHT22;22559;54.176;12.102;2024-03-06T05:00:04;4.70;99.90
36552;DHT22;22559;54.176;12.102;2024-03-06T05:02:32;4.60;99.90
36552;DHT22;22559;54.176;12.102;2024-03-06T05:05:00;4.60;99.90
36552;DHT22;22559;54.176;12.102;2024-03-06T05:07:27;4.60;99.90
36552;DHT22;22559;54.176;12.102;2024-03-06T05:09:53;4.50;99.90
36552;DHT22;22559;54.176;12.102;2024-03-06T05:12:18;4.50;99.90
36552;DHT22;22559;54.176;12.102;2024-03-06T05:14:44;4.50;99.90
36552;DHT22;22559;54.176;12.102;2024-03-06T05:17:09;4.50;99.90
36552;DHT22;22559;54.176;12.102;2024-03-06T05:19:36;4.50;99.90
36552;DHT22;22559;54.176;12.102;2024-03-06T05:22:02;4.40;99.90
36552;DHT22;22559;54.176;12.102;2024-03-06T05:24:29;4.50;99.90
36552;DHT22;22559;54.176;12.102;2024-03-06T05:26:55;4.50;99.90
36552;DHT22;22559;54.176;12.102;2024-03-06T05:29:20;4.50;99.90
36552;DHT22;22559;54.176;12.102;2024-03-06T05:31:46;4.40;99.90
36552;DHT22;22559;54.176;12.102;2024-03-06T05:34:12;4.50;99.90
36552;DHT22;22559;54.176;12.102;2024-03-06T05:36:37;4.40;99.90
36552;DHT22;22559;54.176;12.102;2024-03-06T05:39:03;4.40;99.90
36552;DHT22;22559;54.176;12.102;2024-03-06T05:41:33;4.40;99.90
36552;DHT22;22559;54.176;12.102;2024-03-06T05:43:59;4.30;99.90
36552;DHT22;22559;54.176;12.102;2024-03-06T05:46:24;4.30;99.90
36552;DHT22;22559;54.176;12.102;2024-03-06T05:48:51;4.30;99.90
36552;DHT22;22559;54.176;12.102;2024-03-06T05:51:17;4.30;99.90
36552;DHT22;22559;54.176;12.102;2024-03-06T05:53:43;4.30;99.90
36552;DHT22;22559;54.176;12.102;2024-03-06T05:56:09;4.30;99.90
36552;DHT22;22559;54.176;12.102;2024-03-06T05:58:35;4.30;99.90
36552;DHT22;22559;54.176;12.102;2024-03-06T06:01:01;4.30;99.90
36552;DHT22;22559;54.176;12.102;2024-03-06T06:03:27;4.40;99.90
36552;DHT22;22559;54.176;12.102;2024-03-06T06:05:54;4.50;99.90
36552;DHT22;22559;54.176;12.102;2024-03-06T06:08:19;4.50;99.90
36552;DHT22;22559;54.176;12.102;2024-03-06T06:10:45;4.50;99.90
36552;DHT22;22559;54.176;12.102;2024-03-06T06:13:11;4.40;99.90
36552;DHT22;22559;54.176;12.102;2024-03-06T06:15:37;4.60;99.90
36552;DHT22;22559;54.176;12.102;2024-03-06T06:18:02;4.60;99.90
36552;DHT22;22559;54.176;12.102;2024-03-06T06:20:28;4.50;99.90
36552;DHT22;22559;54.176;12.102;2024-03-06T06:22:54;4.60;99.90
36552;DHT22;22559;54.176;12.102;2024-03-06T06:25:19;4.60;99.90
36552;DHT22;22559;54.176;12.102;2024-03-06T06:27:45;4.60;99.90
36552;DHT22;22559;54.176;12.102;2024-03-06T06:30:11;4.60;99.90
36552;DHT22;22559;54.176;12.102;2024-03-06T06:32:37;4.60;99.90
36552;DHT22;22559;54.176;12.102;2024-03-06T06:35:04;4.60;99.90
36552;DHT22;22559;54.176;12.102;2024-03-06T06:37:30;4.60;99.90
36552;DHT22;22559;54.176;12.102;2024-03-06T06:39:56;4.60;99.90
36552;DHT22;22559;54.176;12.102;2024-03-06T06:42:21;4.60;99.90
36552;DHT22;22559;54.176;12.102;2024-03-06T06:44:47;4.70;99.90
36552;DHT22;22559;54.176;12.102;2024-03-06T06:47:13;4.90;99.90
36552;DHT22;22559;54.176;12.102;2024-03-06T06:49:38;5.00;99.90
36552;DHT22;22559;54.176;12.102;2024-03-06T06:52:04;5.10;99.90
36552;DHT22;22559;54.176;12.102;2024-03-06T06:54:30;5.30;99.90
36552;DHT22;22559;54.176;12.102;2024-03-06T06:56:55;5.40;99.90
36552;DHT22;22559;54.176;12.102;2024-03-06T06:59:21;5.30;99.90
36552;DHT22;22559;54.176;12.102;2024-03-06T07:01:47;5.40;99.90
36552;DHT22;22559;54.176;12.102;2024-03-06T07:04:13;5.20;99.90
36552;DHT22;22559;54.176;12.102;2024-03-06T07:06:42;5.10;99.90
36552;DHT22;22559;54.176;12.102;2024-03-06T07:09:07;4.90;99.90
36552;DHT22;22559;54.176;12.102;2024-03-06T07:11:34;4.90;99.90
36552;DHT22;22559;54.176;12.102;2024-03-06T07:14:00;4.80;99.90
36552;DHT22;22559;54.176;12.102;2024-03-06T07:16:26;4.80;99.90
36552;DHT22;22559;54.176;12.102;2024-03-06T07:18:51;4.70;99.90
36552;DHT22;22559;54.176;12.102;2024-03-06T07:21:17;4.70;99.90
36552;DHT22;22559;54.176;12.102;2024-03-06T07:23:43;4.70;99.90
36552;DHT22;22559;54.176;12.102;2024-03-06T07:26:09;4.70;99.90
36552;DHT22;22559;54.176;12.102;2024-03-06T07:28:35;4.70;99.90
36552;DHT22;22559;54.176;12.102;2024-03-06T07:31:02;4.70;99.90
36552;DHT22;22559;54.176;12.102;2024-03-06T07:33:28;4.70;99.90
36552;DHT22;22559;54.176;12.102;2024-03-06T07:35:54;4.70;99.90
36552;DHT22;22559;54.176;12.102;2024-03-06T07:38:20;4.70;99.90
36552;DHT22;22559;54.176;12.102;2024-03-06T07:40:46;4.70;99.90
36552;DHT22;22559;54.176;12.102;2024-03-06T07:43:11;4.80;99.90
36552;DHT22;22559;54.176;12.102;2024-03-06T07:45:37;4.80;99.90
36552;DHT22;22559;54.176;12.102;2024-03-06T07:48:03;4.80;99.90
36552;DHT22;22559;54.176;12.102;2024-03-06T07:50:29;4.80;99.90
36552;DHT22;22559;54.176;12.102;2024-03-06T07:52:55;4.80;99.90
36552;DHT22;22559;54.176;12.102;2024-03-06T07:55:20;4.90;99.90
36552;DHT22;22559;54.176;12.102;2024-03-06T07:57:47;5.00;99.90
36552;DHT22;22559;54.176;12.102;2024-03-06T08:00:13;5.10;99.90
36552;DHT22;22559;54.176;12.102;2024-03-06T08:02:45;5.10;99.90
36552;DHT22;22559;54.176;12.102;2024-03-06T08:05:15;5.10;99.90
36552;DHT22;22559;54.176;12.102;2024-03-06T08:07:42;5.10;99.90
36552;DHT22;22559;54.176;12.102;2024-03-06T08:10:11;5.10;99.90
36552;DHT22;22559;54.176;12.102;2024-03-06T08:12:43;5.10;99.90
36552;DHT22;22559;54.176;12.102;2024-03-06T08:15:11;5.20;99.90
36552;DHT22;22559;54.176;12.102;2024-03-06T08:17:38;5.20;99.90
36552;DHT22;22559;54.176;12.102;2024-03-06T08:20:05;5.30;99.90
36552;DHT22;22559;54.176;12.102;2024-03-06T08:22:34;5.30;99.90
36552;DHT22;22559;54.176;12.102;2024-03-06T08:25:07;5.40;99.90
36552;DHT22;22559;54.176;12.102;2024-03-06T08:27:34;5.40;99.90
36552;DHT22;22559;54.176;12.102;2024-03-06T08:30:00;5.40;99.90
36552;DHT22;22559;54.176;12.102;2024-03-06T08:32:26;5.50;99.90
36552;DHT22;22559;54.176;12.102;2024-03-06T08:34:53;5.60;99.90
36552;DHT22;22559;54.176;12.102;2024-03-06T08:37:18;5.50;99.90
36552;DHT22;22559;54.176;12.102;2024-03-06T08:39:44;5.60;99.90
36552;DHT22;22559;54.176;12.102;2024-03-06T08:42:11;5.70;99.90
36552;DHT22;22559;54.176;12.102;2024-03-06T08:44:38;5.90;99.90
36552;DHT22;22559;54.176;12.102;2024-03-06T08:47:03;6.10;99.90
36552;DHT22;22559;54.176;12.102;2024-03-06T08:49:29;6.30;99.90
36552;DHT22;22559;54.176;12.102;2024-03-06T08:51:55;6.50;99.90
36552;DHT22;22559;54.176;12.102;2024-03-06T08:54:22;6.70;99.90
36552;DHT22;22559;54.176;12.102;2024-03-06T08:56:48;6.80;99.90
36552;DHT22;22559;54.176;12.102;2024-03-06T08:59:13;7.00;99.90
36552;DHT22;22559;54.176;12.102;2024-03-06T09:01:39;7.10;99.90
36552;DHT22;22559;54.176;12.102;2024-03-06T09:04:05;7.30;99.90
36552;DHT22;22559;54.176;12.102;2024-03-06T09:06:32;7.90;99.90
36552;DHT22;22559;54.176;12.102;2024-03-06T09:08:58;7.90;99.90
36552;DHT22;22559;54.176;12.102;2024-03-06T09:11:24;8.00;99.90
36552;DHT22;22559;54.176;12.102;2024-03-06T09:13:52;8.10;99.90
36552;DHT22;22559;54.176;12.102;2024-03-06T09:16:18;7.80;99.90
36552;DHT22;22559;54.176;12.102;2024-03-06T09:18:44;7.40;99.90
36552;DHT22;22559;54.176;12.102;2024-03-06T09:21:09;7.30;99.90
36552;DHT22;22559;54.176;12.102;2024-03-06T09:23:35;7.10;99.90
36552;DHT22;22559;54.176;12.102;2024-03-06T09:26:00;6.90;99.90
36552;DHT22;22559;54.176;12.102;2024-03-06T09:28:26;6.80;99.90
36552;DHT22;22559;54.176;12.102;2024-03-06T09:30:51;6.80;99.90
36552;DHT22;22559;54.176;12.102;2024-03-06T09:33:17;6.80;99.90
36552;DHT22;22559;54.176;12.102;2024-03-06T09:35:43;6.70;99.90
36552;DHT22;22559;54.176;12.102;2024-03-06T09:38:11;6.70;99.90
36552;DHT22;22559;54.176;12.102;2024-03-06T09:40:38;6.80;99.90
36552;DHT22;22559;54.176;12.102;2024-03-06T09:43:06;6.90;99.90
36552;DHT22;22559;54.176;12.102;2024-03-06T09:45:32;6.90;99.90
36552;DHT22;22559;54.176;12.102;2024-03-06T09:47:58;6.80;99.90
36552;DHT22;22559;54.176;12.102;2024-03-06T09:50:24;6.80;99.90
36552;DHT22;22559;54.176;12.102;2024-03-06T09:52:52;6.80;99.90
36552;DHT22;22559;54.176;12.102;2024-03-06T09:55:21;6.80;99.90
36552;DHT22;22559;54.176;12.102;2024-03-06T09:57:47;6.90;99.90
36552;DHT22;22559;54.176;12.102;2024-03-06T10:00:14;7.10;99.90
36552;DHT22;22559;54.176;12.102;2024-03-06T10:02:57;7.20;99.90
36552;DHT22;22559;54.176;12.102;2024-03-06T10:05:25;7.30;99.90
36552;DHT22;22559;54.176;12.102;2024-03-06T10:07:51;7.30;99.90
36552;DHT22;22559;54.176;12.102;2024-03-06T10:10:18;7.40;99.90
36552;DHT22;22559;54.176;12.102;2024-03-06T10:12:46;7.50;99.90
36552;DHT22;22559;54.176;12.102;2024-03-06T10:15:13;7.40;99.90
36552;DHT22;22559;54.176;12.102;2024-03-06T10:17:39;7.40;99.90
36552;DHT22;22559;54.176;12.102;2024-03-06T10:20:24;7.30;99.90
36552;DHT22;22559;54.176;12.102;2024-03-06T10:22:50;7.20;99.90
36552;DHT22;22559;54.176;12.102;2024-03-06T10:25:25;7.20;99.90
36552;DHT22;22559;54.176;12.102;2024-03-06T10:28:07;7.10;99.90
36552;DHT22;22559;54.176;12.102;2024-03-06T10:30:34;7.00;99.90
36552;DHT22;22559;54.176;12.102;2024-03-06T10:33:02;7.10;99.90
36552;DHT22;22559;54.176;12.102;2024-03-06T10:35:29;7.30;99.90
36552;DHT22;22559;54.176;12.102;2024-03-06T10:37:55;7.40;99.90
36552;DHT22;22559;54.176;12.102;2024-03-06T10:40:23;7.50;99.90
36552;DHT22;22559;54.176;12.102;2024-03-06T10:42:49;7.70;99.90
36552;DHT22;22559;54.176;12.102;2024-03-06T10:45:16;7.70;99.90
36552;DHT22;22559;54.176;12.102;2024-03-06T10:47:46;7.80;99.90
36552;DHT22;22559;54.176;12.102;2024-03-06T10:50:15;7.80;99.90
36552;DHT22;22559;54.176;12.102;2024-03-06T10:52:41;8.00;99.90
36552;DHT22;22559;54.176;12.102;2024-03-06T10:55:08;8.10;99.90
36552;DHT22;22559;54.176;12.102;2024-03-06T10:57:36;8.10;99.90
36552;DHT22;22559;54.176;12.102;2024-03-06T11:00:03;8.00;99.90
36552;DHT22;22559;54.176;12.102;2024-03-06T11:02:29;7.90;99.90
36552;DHT22;22559;54.176;12.102;2024-03-06T11:04:55;7.70;99.90
36552;DHT22;22559;54.176;12.102;2024-03-06T11:07:21;7.70;99.90
36552;DHT22;22559;54.176;12.102;2024-03-06T11:09:47;7.60;99.90
36552;DHT22;22559;54.176;12.102;2024-03-06T11:12:51;7.60;99.90
36552;DHT22;22559;54.176;12.102;2024-03-06T11:15:17;7.60;99.90
36552;DHT22;22559;54.176;12.102;2024-03-06T11:17:42;7.60;99.90
36552;DHT22;22559;54.176;12.102;2024-03-06T11:20:13;7.60;99.90
36552;DHT22;22559;54.176;12.102;2024-03-06T11:28:12;7.50;99.90
36552;DHT22;22559;54.176;12.102;2024-03-06T11:33:19;7.70;99.90
36552;DHT22;22559;54.176;12.102;2024-03-06T11:39:05;7.80;99.90
36552;DHT22;22559;54.176;12.102;2024-03-06T11:44:16;7.80;99.90
36552;DHT22;22559;54.176;12.102;2024-03-06T11:46:43;7.80;99.90
36552;DHT22;22559;54.176;12.102;2024-03-06T11:49:18;8.00;99.90
36552;DHT22;22559;54.176;12.102;2024-03-06T11:51:46;8.20;99.90
36552;DHT22;22559;54.176;12.102;2024-03-06T11:54:13;8.30;99.90
36552;DHT22;22559;54.176;12.102;2024-03-06T11:56:45;8.60;99.90
36552;DHT22;22559;54.176;12.102;2024-03-06T11:59:12;8.70;99.90
36552;DHT22;22559;54.176;12.102;2024-03-06T12:01:38;8.80;99.90
36552;DHT22;22559;54.176;12.102;2024-03-06T12:04:04;8.90;99.90
36552;DHT22;22559;54.176;12.102;2024-03-06T12:06:31;9.10;99.90
36552;DHT22;22559;54.176;12.102;2024-03-06T12:08:58;9.40;99.90
36552;DHT22;22559;54.176;12.102;2024-03-06T12:11:24;9.40;99.90
36552;DHT22;22559;54.176;12.102;2024-03-06T12:13:51;9.90;99.90
36552;DHT22;22559;54.176;12.102;2024-03-06T12:16:17;10.80;99.90
36552;DHT22;22559;54.176;12.102;2024-03-06T12:18:43;11.80;99.90
36552;DHT22;22559;54.176;12.102;2024-03-06T12:21:10;12.20;99.90
36552;DHT22;22559;54.176;12.102;2024-03-06T12:23:36;12.30;99.90
36552;DHT22;22559;54.176;12.102;2024-03-06T12:26:06;12.20;99.90
36552;DHT22;22559;54.176;12.102;2024-03-06T12:28:33;12.00;99.90
36552;DHT22;22559;54.176;12.102;2024-03-06T12:31:05;12.00;99.90
36552;DHT22;22559;54.176;12.102;2024-03-06T12:33:31;11.90;99.90
36552;DHT22;22559;54.176;12.102;2024-03-06T12:38:30;11.50;99.90
36552;DHT22;22559;54.176;12.102;2024-03-06T12:40:56;12.00;99.90
36552;DHT22;22559;54.176;12.102;2024-03-06T12:43:22;11.40;99.90
36552;DHT22;22559;54.176;12.102;2024-03-06T12:45:47;11.60;99.90
36552;DHT22;22559;54.176;12.102;2024-03-06T12:48:13;11.70;99.90
36552;DHT22;22559;54.176;12.102;2024-03-06T12:50:39;11.70;99.90
36552;DHT22;22559;54.176;12.102;2024-03-06T12:53:04;11.60;99.90
36552;DHT22;22559;54.176;12.102;2024-03-06T12:55:31;11.90;99.90
36552;DHT22;22559;54.176;12.102;2024-03-06T12:58:01;12.30;99.90
36552;DHT22;22559;54.176;12.102;2024-03-06T13:00:27;12.60;99.90
36552;DHT22;22559;54.176;12.102;2024-03-06T13:02:53;12.80;99.90
36552;DHT22;22559;54.176;12.102;2024-03-06T13:05:19;12.80;99.90
36552;DHT22;22559;54.176;12.102;2024-03-06T13:07:45;12.30;99.90
36552;DHT22;22559;54.176;12.102;2024-03-06T13:10:11;11.80;99.90
36552;DHT22;22559;54.176;12.102;2024-03-06T13:12:38;11.50;99.90
36552;DHT22;22559;54.176;12.102;2024-03-06T13:15:04;11.10;99.90
36552;DHT22;22559;54.176;12.102;2024-03-06T13:17:30;10.80;99.90
36552;DHT22;22559;54.176;12.102;2024-03-06T13:19:56;11.20;99.90
36552;DHT22;22559;54.176;12.102;2024-03-06T13:22:22;11.90;99.90
36552;DHT22;22559;54.176;12.102;2024-03-06T13:24:48;12.60;99.90
36552;DHT22;22559;54.176;12.102;2024-03-06T13:27:14;12.50;99.90
36552;DHT22;22559;54.176;12.102;2024-03-06T13:29:39;12.90;99.90
36552;DHT22;22559;54.176;12.102;2024-03-06T13:32:07;12.90;99.90
36552;DHT22;22559;54.176;12.102;2024-03-06T13:34:32;12.80;99.90
36552;DHT22;22559;54.176;12.102;2024-03-06T13:36:59;12.30;99.90
36552;DHT22;22559;54.176;12.102;2024-03-06T13:39:24;11.80;99.90
36552;DHT22;22559;54.176;12.102;2024-03-06T13:41:51;11.30;99.90
36552;DHT22;22559;54.176;12.102;2024-03-06T13:44:18;10.80;99.90
36552;DHT22;22559;54.176;12.102;2024-03-06T13:46:44;10.40;99.90
36552;DHT22;22559;54.176;12.102;2024-03-06T13:49:43;10.00;99.90
36552;DHT22;22559;54.176;12.102;2024-03-06T13:52:09;9.50;99.90
36552;DHT22;22559;54.176;12.102;2024-03-06T13:54:42;9.20;99.90
36552;DHT22;22559;54.176;12.102;2024-03-06T13:57:10;8.90;99.90
36552;DHT22;22559;54.176;12.102;2024-03-06T13:59:36;8.70;99.90
36552;DHT22;22559;54.176;12.102;2024-03-06T14:02:03;8.40;99.90
36552;DHT22;22559;54.176;12.102;2024-03-06T14:04:29;8.30;99.90
36552;DHT22;22559;54.176;12.102;2024-03-06T14:06:56;8.20;99.90
36552;DHT22;22559;54.176;12.102;2024-03-06T14:09:25;8.20;99.90
36552;DHT22;22559;54.176;12.102;2024-03-06T14:11:51;8.10;99.90
36552;DHT22;22559;54.176;12.102;2024-03-06T14:14:17;8.20;99.90
36552;DHT22;22559;54.176;12.102;2024-03-06T14:16:43;8.00;99.90
36552;DHT22;22559;54.176;12.102;2024-03-06T14:19:09;8.00;99.90
36552;DHT22;22559;54.176;12.102;2024-03-06T14:21:35;7.80;99.90
36552;DHT22;22559;54.176;12.102;2024-03-06T14:24:01;7.80;99.90
36552;DHT22;22559;54.176;12.102;2024-03-06T14:26:32;7.80;99.90
36552;DHT22;22559;54.176;12.102;2024-03-06T14:28:59;7.70;99.90
36552;DHT22;22559;54.176;12.102;2024-03-06T14:31:25;7.70;99.90
36552;DHT22;22559;54.176;12.102;2024-03-06T14:33:50;7.90;99.90
36552;DHT22;22559;54.176;12.102;2024-03-06T14:36:16;7.80;99.90
36552;DHT22;22559;54.176;12.102;2024-03-06T14:38:42;7.80;99.90
36552;DHT22;22559;54.176;12.102;2024-03-06T14:41:10;7.90;99.90
36552;DHT22;22559;54.176;12.102;2024-03-06T14:43:35;7.80;99.90
36552;DHT22;22559;54.176;12.102;2024-03-06T14:46:07;7.90;99.90
36552;DHT22;22559;54.176;12.102;2024-03-06T14:48:34;7.90;99.90
36552;DHT22;22559;54.176;12.102;2024-03-06T14:51:01;7.90;99.90
36552;DHT22;22559;54.176;12.102;2024-03-06T14:53:26;8.00;99.90
36552;DHT22;22559;54.176;12.102;2024-03-06T14:55:52;8.10;99.90
36552;DHT22;22559;54.176;12.102;2024-03-06T14:58:18;8.10;99.90
36552;DHT22;22559;54.176;12.102;2024-03-06T15:00:44;8.00;99.90
36552;DHT22;22559;54.176;12.102;2024-03-06T15:03:10;7.80;99.90
36552;DHT22;22559;54.176;12.102;2024-03-06T15:05:36;7.80;99.90
36552;DHT22;22559;54.176;12.102;2024-03-06T15:08:02;7.80;99.90
36552;DHT22;22559;54.176;12.102;2024-03-06T15:10:30;7.60;99.90
36552;DHT22;22559;54.176;12.102;2024-03-06T15:12:59;7.60;99.90
36552;DHT22;22559;54.176;12.102;2024-03-06T15:15:25;7.50;99.90
36552;DHT22;22559;54.176;12.102;2024-03-06T15:17:51;7.50;99.90
36552;DHT22;22559;54.176;12.102;2024-03-06T15:20:16;7.40;99.90
36552;DHT22;22559;54.176;12.102;2024-03-06T15:22:43;7.30;99.90
36552;DHT22;22559;54.176;12.102;2024-03-06T15:25:13;7.30;99.90
36552;DHT22;22559;54.176;12.102;2024-03-06T15:27:40;7.20;99.90
36552;DHT22;22559;54.176;12.102;2024-03-06T15:30:09;7.10;99.90
36552;DHT22;22559;54.176;12.102;2024-03-06T15:32:35;7.10;99.90
36552;DHT22;22559;54.176;12.102;2024-03-06T15:35:01;7.10;99.90
36552;DHT22;22559;54.176;12.102;2024-03-06T15:37:29;7.10;99.90
36552;DHT22;22559;54.176;12.102;2024-03-06T15:39:55;7.10;99.90
36552;DHT22;22559;54.176;12.102;2024-03-06T15:42:21;7.30;99.90
36552;DHT22;22559;54.176;12.102;2024-03-06T15:44:51;7.40;99.90